sensor_id;sensor_type;location;lat;lon;timestamp;P1;durP1;ratioP1;P2;durP2;ratioP2
13309;SDS011;6723;48.256;16.402;2022-07-29T00:00:44;4.80;;;4.40;;
13309;SDS011;6723;48.256;16.402;2022-07-29T00:03:10;7.60;;;4.43;;
13309;SDS011;6723;48.256;16.402;2022-07-29T00:05:40;5.13;;;4.50;;
13309;SDS011;6723;48.256;16.402;2022-07-29T00:08:09;5.83;;;4.90;;
13309;SDS011;6723;48.256;16.402;2022-07-29T00:10:35;4.73;;;4.33;;
13309;SDS011;6723;48.256;16.402;2022-07-29T00:13:01;6.30;;;4.50;;
13309;SDS011;6723;48.256;16.402;2022-07-29T00:15:27;4.60;;;4.17;;
13309;SDS011;6723;48.256;16.402;2022-07-29T00:17:53;5.30;;;4.80;;
13309;SDS011;6723;48.256;16.402;2022-07-29T00:20:19;5.30;;;4.80;;
13309;SDS011;6723;48.256;16.402;2022-07-29T00:22:45;4.67;;;4.20;;
13309;SDS011;6723;48.256;16.402;2022-07-29T00:25:11;6.80;;;4.50;;
13309;SDS011;6723;48.256;16.402;2022-07-29T00:27:38;5.70;;;4.47;;
13309;SDS011;6723;48.256;16.402;2022-07-29T00:30:04;6.70;;;4.90;;
13309;SDS011;6723;48.256;16.402;2022-07-29T00:32:31;5.67;;;4.67;;
13309;SDS011;6723;48.256;16.402;2022-07-29T00:34:56;8.40;;;5.27;;
13309;SDS011;6723;48.256;16.402;2022-07-29T00:37:41;5.23;;;4.73;;
13309;SDS011;6723;48.256;16.402;2022-07-29T00:40:07;6.47;;;4.60;;
13309;SDS011;6723;48.256;16.402;2022-07-29T00:42:47;5.87;;;4.60;;
13309;SDS011;6723;48.256;16.402;2022-07-29T00:45:14;4.63;;;4.23;;
13309;SDS011;6723;48.256;16.402;2022-07-29T00:47:41;6.40;;;5.20;;
13309;SDS011;6723;48.256;16.402;2022-07-29T00:50:09;7.00;;;4.60;;
13309;SDS011;6723;48.256;16.402;2022-07-29T00:52:37;6.10;;;5.00;;
13309;SDS011;6723;48.256;16.402;2022-07-29T00:55:05;5.60;;;4.60;;
13309;SDS011;6723;48.256;16.402;2022-07-29T00:57:33;5.77;;;5.13;;
13309;SDS011;6723;48.256;16.402;2022-07-29T01:00:00;6.27;;;4.70;;
13309;SDS011;6723;48.256;16.402;2022-07-29T01:02:26;5.07;;;4.60;;
13309;SDS011;6723;48.256;16.402;2022-07-29T01:04:52;6.50;;;4.80;;
13309;SDS011;6723;48.256;16.402;2022-07-29T01:07:18;6.37;;;4.80;;
13309;SDS011;6723;48.256;16.402;2022-07-29T01:09:45;6.20;;;4.80;;
13309;SDS011;6723;48.256;16.402;2022-07-29T01:12:13;7.20;;;5.27;;
13309;SDS011;6723;48.256;16.402;2022-07-29T01:14:43;6.00;;;4.90;;
13309;SDS011;6723;48.256;16.402;2022-07-29T01:17:12;9.57;;;5.10;;
13309;SDS011;6723;48.256;16.402;2022-07-29T01:19:56;5.97;;;4.97;;
13309;SDS011;6723;48.256;16.402;2022-07-29T01:25:50;6.40;;;5.00;;
13309;SDS011;6723;48.256;16.402;2022-07-29T01:30:42;6.37;;;5.30;;
13309;SDS011;6723;48.256;16.402;2022-07-29T01:33:11;8.47;;;6.00;;
13309;SDS011;6723;48.256;16.402;2022-07-29T01:36:01;7.87;;;5.30;;
13309;SDS011;6723;48.256;16.402;2022-07-29T01:38:37;8.23;;;5.60;;
13309;SDS011;6723;48.256;16.402;2022-07-29T01:41:08;8.87;;;5.13;;
13309;SDS011;6723;48.256;16.402;2022-07-29T01:43:40;9.53;;;5.50;;
13309;SDS011;6723;48.256;16.402;2022-07-29T01:46:09;9.50;;;6.03;;
13309;SDS011;6723;48.256;16.402;2022-07-29T01:51:11;5.97;;;5.20;;
13309;SDS011;6723;48.256;16.402;2022-07-29T01:54:02;6.13;;;5.53;;
13309;SDS011;6723;48.256;16.402;2022-07-29T01:56:35;7.07;;;5.80;;
13309;SDS011;6723;48.256;16.402;2022-07-29T01:59:04;7.63;;;5.20;;
13309;SDS011;6723;48.256;16.402;2022-07-29T02:01:32;6.10;;;5.57;;
13309;SDS011;6723;48.256;16.402;2022-07-29T02:04:01;5.70;;;5.20;;
13309;SDS011;6723;48.256;16.402;2022-07-29T02:06:30;6.00;;;5.40;;
13309;SDS011;6723;48.256;16.402;2022-07-29T02:08:59;7.63;;;5.73;;
13309;SDS011;6723;48.256;16.402;2022-07-29T02:11:27;6.37;;;5.73;;
13309;SDS011;6723;48.256;16.402;2022-07-29T02:13:54;7.73;;;5.47;;
13309;SDS011;6723;48.256;16.402;2022-07-29T02:16:23;7.30;;;6.10;;
13309;SDS011;6723;48.256;16.402;2022-07-29T02:18:52;6.70;;;6.00;;
13309;SDS011;6723;48.256;16.402;2022-07-29T02:21:21;7.20;;;6.07;;
13309;SDS011;6723;48.256;16.402;2022-07-29T02:23:49;7.23;;;5.50;;
13309;SDS011;6723;48.256;16.402;2022-07-29T02:26:19;9.33;;;6.00;;
13309;SDS011;6723;48.256;16.402;2022-07-29T02:28:48;6.17;;;5.23;;
13309;SDS011;6723;48.256;16.402;2022-07-29T02:31:18;6.40;;;5.80;;
13309;SDS011;6723;48.256;16.402;2022-07-29T02:33:47;8.73;;;5.83;;
13309;SDS011;6723;48.256;16.402;2022-07-29T02:36:15;8.17;;;5.67;;
13309;SDS011;6723;48.256;16.402;2022-07-29T02:38:42;8.67;;;5.77;;
13309;SDS011;6723;48.256;16.402;2022-07-29T02:41:29;8.83;;;6.20;;
13309;SDS011;6723;48.256;16.402;2022-07-29T02:44:04;7.63;;;6.00;;
13309;SDS011;6723;48.256;16.402;2022-07-29T02:46:35;6.43;;;5.30;;
13309;SDS011;6723;48.256;16.402;2022-07-29T02:49:09;7.17;;;5.90;;
13309;SDS011;6723;48.256;16.402;2022-07-29T02:51:49;8.00;;;6.10;;
13309;SDS011;6723;48.256;16.402;2022-07-29T02:54:21;6.70;;;5.87;;
13309;SDS011;6723;48.256;16.402;2022-07-29T02:57:41;7.17;;;5.80;;
13309;SDS011;6723;48.256;16.402;2022-07-29T03:00:07;7.00;;;5.73;;
13309;SDS011;6723;48.256;16.402;2022-07-29T03:02:38;6.23;;;5.63;;
13309;SDS011;6723;48.256;16.402;2022-07-29T03:05:09;6.77;;;5.43;;
13309;SDS011;6723;48.256;16.402;2022-07-29T03:07:41;6.17;;;5.60;;
13309;SDS011;6723;48.256;16.402;2022-07-29T03:10:10;7.13;;;6.43;;
13309;SDS011;6723;48.256;16.402;2022-07-29T03:12:36;8.83;;;5.57;;
13309;SDS011;6723;48.256;16.402;2022-07-29T03:15:03;9.50;;;6.87;;
13309;SDS011;6723;48.256;16.402;2022-07-29T03:17:31;6.67;;;6.00;;
13309;SDS011;6723;48.256;16.402;2022-07-29T03:19:58;8.57;;;5.90;;
13309;SDS011;6723;48.256;16.402;2022-07-29T03:22:25;6.60;;;6.00;;
13309;SDS011;6723;48.256;16.402;2022-07-29T03:24:51;6.77;;;5.60;;
13309;SDS011;6723;48.256;16.402;2022-07-29T03:27:16;8.50;;;6.20;;
13309;SDS011;6723;48.256;16.402;2022-07-29T03:29:42;8.07;;;5.90;;
13309;SDS011;6723;48.256;16.402;2022-07-29T03:32:08;7.17;;;5.43;;
13309;SDS011;6723;48.256;16.402;2022-07-29T03:34:34;7.07;;;5.90;;
13309;SDS011;6723;48.256;16.402;2022-07-29T03:37:01;6.37;;;5.47;;
13309;SDS011;6723;48.256;16.402;2022-07-29T03:39:29;6.97;;;5.57;;
13309;SDS011;6723;48.256;16.402;2022-07-29T03:42:00;9.03;;;6.20;;
13309;SDS011;6723;48.256;16.402;2022-07-29T03:44:27;7.03;;;6.10;;
13309;SDS011;6723;48.256;16.402;2022-07-29T03:46:55;6.43;;;5.73;;
13309;SDS011;6723;48.256;16.402;2022-07-29T03:49:25;9.47;;;6.30;;
13309;SDS011;6723;48.256;16.402;2022-07-29T03:51:52;7.73;;;6.50;;
13309;SDS011;6723;48.256;16.402;2022-07-29T03:54:18;6.53;;;5.77;;
13309;SDS011;6723;48.256;16.402;2022-07-29T03:56:45;7.47;;;5.73;;
13309;SDS011;6723;48.256;16.402;2022-07-29T03:59:13;7.33;;;6.10;;
13309;SDS011;6723;48.256;16.402;2022-07-29T04:01:40;7.67;;;5.90;;
13309;SDS011;6723;48.256;16.402;2022-07-29T04:04:07;8.70;;;6.80;;
13309;SDS011;6723;48.256;16.402;2022-07-29T04:06:44;9.60;;;6.00;;
13309;SDS011;6723;48.256;16.402;2022-07-29T04:09:10;7.80;;;5.97;;
13309;SDS011;6723;48.256;16.402;2022-07-29T04:11:38;7.33;;;6.27;;
13309;SDS011;6723;48.256;16.402;2022-07-29T04:14:04;12.63;;;6.60;;
13309;SDS011;6723;48.256;16.402;2022-07-29T04:16:31;13.63;;;5.93;;
13309;SDS011;6723;48.256;16.402;2022-07-29T04:18:57;6.77;;;6.13;;
13309;SDS011;6723;48.256;16.402;2022-07-29T04:21:23;7.23;;;6.03;;
13309;SDS011;6723;48.256;16.402;2022-07-29T04:23:49;6.03;;;5.43;;
13309;SDS011;6723;48.256;16.402;2022-07-29T04:26:18;10.23;;;5.57;;
13309;SDS011;6723;48.256;16.402;2022-07-29T04:28:45;7.03;;;5.70;;
13309;SDS011;6723;48.256;16.402;2022-07-29T04:31:11;8.20;;;6.30;;
13309;SDS011;6723;48.256;16.402;2022-07-29T04:33:38;6.90;;;6.20;;
13309;SDS011;6723;48.256;16.402;2022-07-29T04:36:04;9.97;;;5.83;;
13309;SDS011;6723;48.256;16.402;2022-07-29T04:38:30;7.93;;;6.17;;
13309;SDS011;6723;48.256;16.402;2022-07-29T04:40:56;7.30;;;5.70;;
13309;SDS011;6723;48.256;16.402;2022-07-29T04:43:22;6.60;;;5.90;;
13309;SDS011;6723;48.256;16.402;2022-07-29T04:45:48;6.80;;;5.50;;
13309;SDS011;6723;48.256;16.402;2022-07-29T04:48:13;7.57;;;5.90;;
13309;SDS011;6723;48.256;16.402;2022-07-29T04:50:39;8.90;;;6.03;;
13309;SDS011;6723;48.256;16.402;2022-07-29T04:53:06;8.10;;;5.83;;
13309;SDS011;6723;48.256;16.402;2022-07-29T04:55:33;7.10;;;6.30;;
13309;SDS011;6723;48.256;16.402;2022-07-29T04:57:59;7.17;;;6.03;;
13309;SDS011;6723;48.256;16.402;2022-07-29T05:00:25;6.37;;;5.77;;
13309;SDS011;6723;48.256;16.402;2022-07-29T05:02:51;8.43;;;6.50;;
13309;SDS011;6723;48.256;16.402;2022-07-29T05:05:16;8.43;;;6.47;;
13309;SDS011;6723;48.256;16.402;2022-07-29T05:07:42;8.13;;;7.00;;
13309;SDS011;6723;48.256;16.402;2022-07-29T05:10:08;9.60;;;6.33;;
13309;SDS011;6723;48.256;16.402;2022-07-29T05:12:34;7.10;;;6.40;;
13309;SDS011;6723;48.256;16.402;2022-07-29T05:15:00;10.27;;;6.90;;
13309;SDS011;6723;48.256;16.402;2022-07-29T05:17:26;9.77;;;6.73;;
13309;SDS011;6723;48.256;16.402;2022-07-29T05:19:52;10.57;;;6.93;;
13309;SDS011;6723;48.256;16.402;2022-07-29T05:22:19;11.60;;;6.70;;
13309;SDS011;6723;48.256;16.402;2022-07-29T05:24:45;10.83;;;6.67;;
13309;SDS011;6723;48.256;16.402;2022-07-29T05:27:15;7.50;;;6.63;;
13309;SDS011;6723;48.256;16.402;2022-07-29T05:29:41;9.07;;;7.03;;
13309;SDS011;6723;48.256;16.402;2022-07-29T05:32:06;8.70;;;7.13;;
13309;SDS011;6723;48.256;16.402;2022-07-29T05:34:32;11.20;;;7.00;;
13309;SDS011;6723;48.256;16.402;2022-07-29T05:36:58;11.40;;;6.93;;
13309;SDS011;6723;48.256;16.402;2022-07-29T05:39:24;13.03;;;6.83;;
13309;SDS011;6723;48.256;16.402;2022-07-29T05:41:49;10.10;;;6.80;;
13309;SDS011;6723;48.256;16.402;2022-07-29T05:44:15;9.87;;;7.20;;
13309;SDS011;6723;48.256;16.402;2022-07-29T05:46:41;11.13;;;6.90;;
13309;SDS011;6723;48.256;16.402;2022-07-29T05:49:07;7.43;;;6.47;;
13309;SDS011;6723;48.256;16.402;2022-07-29T05:51:33;7.70;;;6.23;;
13309;SDS011;6723;48.256;16.402;2022-07-29T05:53:59;11.30;;;6.80;;
13309;SDS011;6723;48.256;16.402;2022-07-29T05:56:25;6.70;;;6.10;;
13309;SDS011;6723;48.256;16.402;2022-07-29T05:58:51;8.93;;;6.47;;
13309;SDS011;6723;48.256;16.402;2022-07-29T06:01:17;9.23;;;6.47;;
13309;SDS011;6723;48.256;16.402;2022-07-29T06:03:43;10.80;;;6.87;;
13309;SDS011;6723;48.256;16.402;2022-07-29T06:06:09;12.43;;;6.97;;
13309;SDS011;6723;48.256;16.402;2022-07-29T06:08:35;10.80;;;7.47;;
13309;SDS011;6723;48.256;16.402;2022-07-29T06:11:02;8.80;;;6.50;;
13309;SDS011;6723;48.256;16.402;2022-07-29T06:13:28;8.10;;;6.00;;
13309;SDS011;6723;48.256;16.402;2022-07-29T06:15:55;8.83;;;6.27;;
13309;SDS011;6723;48.256;16.402;2022-07-29T06:18:21;10.93;;;6.30;;
13309;SDS011;6723;48.256;16.402;2022-07-29T06:20:52;7.70;;;5.87;;
13309;SDS011;6723;48.256;16.402;2022-07-29T06:23:18;6.83;;;6.03;;
13309;SDS011;6723;48.256;16.402;2022-07-29T06:25:45;9.63;;;7.80;;
13309;SDS011;6723;48.256;16.402;2022-07-29T06:28:11;9.63;;;6.90;;
13309;SDS011;6723;48.256;16.402;2022-07-29T06:30:38;8.50;;;6.07;;
13309;SDS011;6723;48.256;16.402;2022-07-29T06:33:04;7.80;;;5.70;;
13309;SDS011;6723;48.256;16.402;2022-07-29T06:35:32;7.13;;;5.63;;
13309;SDS011;6723;48.256;16.402;2022-07-29T06:38:00;7.17;;;5.93;;
13309;SDS011;6723;48.256;16.402;2022-07-29T06:40:26;6.20;;;5.30;;
13309;SDS011;6723;48.256;16.402;2022-07-29T06:43:10;6.37;;;5.57;;
13309;SDS011;6723;48.256;16.402;2022-07-29T06:45:36;10.33;;;5.23;;
13309;SDS011;6723;48.256;16.402;2022-07-29T06:48:05;7.60;;;5.50;;
13309;SDS011;6723;48.256;16.402;2022-07-29T06:50:31;10.07;;;5.50;;
13309;SDS011;6723;48.256;16.402;2022-07-29T06:52:57;8.87;;;5.77;;
13309;SDS011;6723;48.256;16.402;2022-07-29T06:55:23;7.87;;;5.27;;
13309;SDS011;6723;48.256;16.402;2022-07-29T06:57:49;7.73;;;5.50;;
13309;SDS011;6723;48.256;16.402;2022-07-29T07:00:15;7.90;;;5.30;;
13309;SDS011;6723;48.256;16.402;2022-07-29T07:02:41;10.20;;;5.80;;
13309;SDS011;6723;48.256;16.402;2022-07-29T07:05:07;9.70;;;6.00;;
13309;SDS011;6723;48.256;16.402;2022-07-29T07:07:33;7.13;;;5.37;;
13309;SDS011;6723;48.256;16.402;2022-07-29T07:12:48;7.27;;;5.70;;
13309;SDS011;6723;48.256;16.402;2022-07-29T07:15:14;5.93;;;5.30;;
13309;SDS011;6723;48.256;16.402;2022-07-29T07:17:39;7.70;;;5.40;;
13309;SDS011;6723;48.256;16.402;2022-07-29T07:20:19;7.83;;;5.80;;
13309;SDS011;6723;48.256;16.402;2022-07-29T07:22:45;13.17;;;11.27;;
13309;SDS011;6723;48.256;16.402;2022-07-29T07:25:11;10.90;;;6.53;;
13309;SDS011;6723;48.256;16.402;2022-07-29T07:27:37;7.73;;;5.67;;
13309;SDS011;6723;48.256;16.402;2022-07-29T07:30:03;7.00;;;6.00;;
13309;SDS011;6723;48.256;16.402;2022-07-29T07:32:31;8.17;;;6.27;;
13309;SDS011;6723;48.256;16.402;2022-07-29T07:35:00;9.43;;;5.90;;
13309;SDS011;6723;48.256;16.402;2022-07-29T07:37:26;10.37;;;7.53;;
13309;SDS011;6723;48.256;16.402;2022-07-29T07:39:52;8.87;;;5.90;;
13309;SDS011;6723;48.256;16.402;2022-07-29T07:42:19;6.27;;;5.47;;
13309;SDS011;6723;48.256;16.402;2022-07-29T07:44:44;12.97;;;6.00;;
13309;SDS011;6723;48.256;16.402;2022-07-29T07:47:11;10.97;;;5.70;;
13309;SDS011;6723;48.256;16.402;2022-07-29T07:49:38;7.07;;;5.50;;
13309;SDS011;6723;48.256;16.402;2022-07-29T07:52:04;6.87;;;5.83;;
13309;SDS011;6723;48.256;16.402;2022-07-29T07:54:30;6.30;;;5.67;;
13309;SDS011;6723;48.256;16.402;2022-07-29T07:56:56;8.87;;;5.67;;
13309;SDS011;6723;48.256;16.402;2022-07-29T07:59:22;9.63;;;5.73;;
13309;SDS011;6723;48.256;16.402;2022-07-29T08:01:48;7.07;;;5.50;;
13309;SDS011;6723;48.256;16.402;2022-07-29T08:04:15;7.73;;;6.50;;
13309;SDS011;6723;48.256;16.402;2022-07-29T08:06:40;9.90;;;6.20;;
13309;SDS011;6723;48.256;16.402;2022-07-29T08:09:06;9.20;;;5.70;;
13309;SDS011;6723;48.256;16.402;2022-07-29T08:11:32;9.63;;;5.50;;
13309;SDS011;6723;48.256;16.402;2022-07-29T08:13:58;10.30;;;6.37;;
13309;SDS011;6723;48.256;16.402;2022-07-29T08:16:26;9.77;;;6.55;;
13309;SDS011;6723;48.256;16.402;2022-07-29T08:18:52;8.32;;;5.88;;
13309;SDS011;6723;48.256;16.402;2022-07-29T08:21:21;7.70;;;5.57;;
13309;SDS011;6723;48.256;16.402;2022-07-29T08:23:49;6.65;;;5.78;;
13309;SDS011;6723;48.256;16.402;2022-07-29T08:26:17;7.95;;;5.70;;
13309;SDS011;6723;48.256;16.402;2022-07-29T08:28:44;6.05;;;5.30;;
13309;SDS011;6723;48.256;16.402;2022-07-29T08:31:13;7.82;;;4.53;;
13309;SDS011;6723;48.256;16.402;2022-07-29T08:33:40;4.85;;;4.15;;
13309;SDS011;6723;48.256;16.402;2022-07-29T08:36:06;7.53;;;4.32;;
13309;SDS011;6723;48.256;16.402;2022-07-29T08:38:32;5.28;;;4.15;;
13309;SDS011;6723;48.256;16.402;2022-07-29T08:41:00;8.75;;;4.20;;
13309;SDS011;6723;48.256;16.402;2022-07-29T08:43:27;4.20;;;3.53;;
13309;SDS011;6723;48.256;16.402;2022-07-29T08:45:54;3.85;;;3.28;;
13309;SDS011;6723;48.256;16.402;2022-07-29T08:48:20;3.53;;;3.03;;
13309;SDS011;6723;48.256;16.402;2022-07-29T08:50:48;5.35;;;2.75;;
13309;SDS011;6723;48.256;16.402;2022-07-29T08:53:19;5.90;;;2.65;;
13309;SDS011;6723;48.256;16.402;2022-07-29T08:55:49;3.97;;;2.80;;
13309;SDS011;6723;48.256;16.402;2022-07-29T08:58:15;3.88;;;3.42;;
13309;SDS011;6723;48.256;16.402;2022-07-29T09:00:43;3.95;;;2.80;;
13309;SDS011;6723;48.256;16.402;2022-07-29T09:03:15;3.55;;;3.25;;
13309;SDS011;6723;48.256;16.402;2022-07-29T09:05:47;5.20;;;4.70;;
13309;SDS011;6723;48.256;16.402;2022-07-29T09:08:14;4.20;;;3.60;;
13309;SDS011;6723;48.256;16.402;2022-07-29T09:10:41;5.78;;;5.05;;
13309;SDS011;6723;48.256;16.402;2022-07-29T09:13:07;7.45;;;3.85;;
13309;SDS011;6723;48.256;16.402;2022-07-29T09:15:33;5.82;;;3.92;;
13309;SDS011;6723;48.256;16.402;2022-07-29T09:17:59;8.75;;;4.38;;
13309;SDS011;6723;48.256;16.402;2022-07-29T09:20:25;5.90;;;3.92;;
13309;SDS011;6723;48.256;16.402;2022-07-29T09:23:11;4.53;;;3.80;;
13309;SDS011;6723;48.256;16.402;2022-07-29T09:25:38;4.53;;;3.83;;
13309;SDS011;6723;48.256;16.402;2022-07-29T09:28:13;6.07;;;4.05;;
13309;SDS011;6723;48.256;16.402;2022-07-29T09:30:54;4.88;;;3.95;;
13309;SDS011;6723;48.256;16.402;2022-07-29T09:33:22;6.40;;;4.45;;
13309;SDS011;6723;48.256;16.402;2022-07-29T09:35:58;5.80;;;4.47;;
13309;SDS011;6723;48.256;16.402;2022-07-29T09:38:31;5.65;;;4.15;;
13309;SDS011;6723;48.256;16.402;2022-07-29T09:40:58;4.45;;;3.90;;
13309;SDS011;6723;48.256;16.402;2022-07-29T09:43:25;8.45;;;4.03;;
13309;SDS011;6723;48.256;16.402;2022-07-29T09:45:51;4.30;;;3.70;;
13309;SDS011;6723;48.256;16.402;2022-07-29T09:48:21;4.00;;;3.60;;
13309;SDS011;6723;48.256;16.402;2022-07-29T09:50:48;9.57;;;3.72;;
13309;SDS011;6723;48.256;16.402;2022-07-29T09:56:02;4.45;;;3.10;;
13309;SDS011;6723;48.256;16.402;2022-07-29T09:58:30;5.72;;;3.80;;
13309;SDS011;6723;48.256;16.402;2022-07-29T10:00:58;4.82;;;3.33;;
13309;SDS011;6723;48.256;16.402;2022-07-29T10:03:24;3.60;;;3.20;;
13309;SDS011;6723;48.256;16.402;2022-07-29T10:06:03;3.50;;;3.15;;
13309;SDS011;6723;48.256;16.402;2022-07-29T10:08:31;3.78;;;3.33;;
13309;SDS011;6723;48.256;16.402;2022-07-29T10:11:09;4.07;;;3.63;;
13309;SDS011;6723;48.256;16.402;2022-07-29T10:13:40;4.53;;;3.65;;
13309;SDS011;6723;48.256;16.402;2022-07-29T10:16:06;7.97;;;4.00;;
13309;SDS011;6723;48.256;16.402;2022-07-29T10:18:33;4.20;;;3.40;;
13309;SDS011;6723;48.256;16.402;2022-07-29T10:21:00;6.60;;;3.40;;
13309;SDS011;6723;48.256;16.402;2022-07-29T10:23:29;3.80;;;3.50;;
13309;SDS011;6723;48.256;16.402;2022-07-29T10:25:55;4.72;;;3.70;;
13309;SDS011;6723;48.256;16.402;2022-07-29T10:28:22;4.25;;;3.47;;
13309;SDS011;6723;48.256;16.402;2022-07-29T10:30:50;4.15;;;3.20;;
13309;SDS011;6723;48.256;16.402;2022-07-29T10:44:29;3.50;;;3.20;;
13309;SDS011;6723;48.256;16.402;2022-07-29T10:46:55;4.97;;;3.15;;
13309;SDS011;6723;48.256;16.402;2022-07-29T10:49:22;6.95;;;3.05;;
13309;SDS011;6723;48.256;16.402;2022-07-29T11:10:36;5.65;;;3.17;;
13309;SDS011;6723;48.256;16.402;2022-07-29T11:13:03;6.57;;;3.97;;
13309;SDS011;6723;48.256;16.402;2022-07-29T11:15:29;4.07;;;3.67;;
13309;SDS011;6723;48.256;16.402;2022-07-29T11:18:19;5.15;;;4.10;;
13309;SDS011;6723;48.256;16.402;2022-07-29T11:20:49;6.40;;;4.65;;
13309;SDS011;6723;48.256;16.402;2022-07-29T11:25:45;7.88;;;5.32;;
13309;SDS011;6723;48.256;16.402;2022-07-29T11:28:31;5.85;;;5.30;;
13309;SDS011;6723;48.256;16.402;2022-07-29T11:30:59;5.45;;;4.13;;
13309;SDS011;6723;48.256;16.402;2022-07-29T11:33:29;5.70;;;4.45;;
13309;SDS011;6723;48.256;16.402;2022-07-29T11:36:15;5.50;;;3.90;;
13309;SDS011;6723;48.256;16.402;2022-07-29T11:38:41;8.02;;;4.43;;
13309;SDS011;6723;48.256;16.402;2022-07-29T11:41:26;4.60;;;4.03;;
13309;SDS011;6723;48.256;16.402;2022-07-29T11:43:55;7.15;;;4.07;;
13309;SDS011;6723;48.256;16.402;2022-07-29T11:49:20;4.28;;;3.78;;
13309;SDS011;6723;48.256;16.402;2022-07-29T11:51:54;5.03;;;4.18;;
13309;SDS011;6723;48.256;16.402;2022-07-29T11:54:26;4.72;;;4.20;;
13309;SDS011;6723;48.256;16.402;2022-07-29T11:56:57;4.40;;;4.00;;
13309;SDS011;6723;48.256;16.402;2022-07-29T11:59:23;3.97;;;3.67;;
13309;SDS011;6723;48.256;16.402;2022-07-29T12:01:53;5.35;;;3.75;;
13309;SDS011;6723;48.256;16.402;2022-07-29T12:04:20;5.15;;;3.70;;
13309;SDS011;6723;48.256;16.402;2022-07-29T12:06:49;5.32;;;4.53;;
13309;SDS011;6723;48.256;16.402;2022-07-29T12:09:16;7.65;;;4.75;;
13309;SDS011;6723;48.256;16.402;2022-07-29T12:11:43;5.25;;;3.38;;
13309;SDS011;6723;48.256;16.402;2022-07-29T12:14:08;5.88;;;3.92;;
13309;SDS011;6723;48.256;16.402;2022-07-29T12:16:35;3.92;;;3.22;;
13309;SDS011;6723;48.256;16.402;2022-07-29T12:19:02;4.85;;;3.40;;
13309;SDS011;6723;48.256;16.402;2022-07-29T12:21:50;4.93;;;3.30;;
13309;SDS011;6723;48.256;16.402;2022-07-29T12:24:17;3.75;;;3.10;;
13309;SDS011;6723;48.256;16.402;2022-07-29T12:29:20;6.53;;;3.53;;
13309;SDS011;6723;48.256;16.402;2022-07-29T12:31:50;5.68;;;3.47;;
13309;SDS011;6723;48.256;16.402;2022-07-29T12:34:19;6.45;;;3.40;;
13309;SDS011;6723;48.256;16.402;2022-07-29T12:36:47;4.32;;;3.28;;
13309;SDS011;6723;48.256;16.402;2022-07-29T12:39:15;4.13;;;3.72;;
13309;SDS011;6723;48.256;16.402;2022-07-29T12:41:42;4.45;;;3.70;;
13309;SDS011;6723;48.256;16.402;2022-07-29T12:44:09;4.40;;;3.72;;
13309;SDS011;6723;48.256;16.402;2022-07-29T12:46:36;4.35;;;3.90;;
13309;SDS011;6723;48.256;16.402;2022-07-29T12:49:02;4.20;;;3.80;;
13309;SDS011;6723;48.256;16.402;2022-07-29T12:54:11;3.83;;;3.47;;
13309;SDS011;6723;48.256;16.402;2022-07-29T12:56:40;5.45;;;4.03;;
13309;SDS011;6723;48.256;16.402;2022-07-29T12:59:14;5.72;;;3.97;;
13309;SDS011;6723;48.256;16.402;2022-07-29T13:01:41;8.23;;;4.20;;
13309;SDS011;6723;48.256;16.402;2022-07-29T13:07:23;8.15;;;4.50;;
13309;SDS011;6723;48.256;16.402;2022-07-29T13:09:50;5.88;;;4.22;;
13309;SDS011;6723;48.256;16.402;2022-07-29T13:12:16;5.95;;;4.10;;
13309;SDS011;6723;48.256;16.402;2022-07-29T13:14:43;6.70;;;5.05;;
13309;SDS011;6723;48.256;16.402;2022-07-29T13:17:20;7.83;;;5.10;;
13309;SDS011;6723;48.256;16.402;2022-07-29T13:22:14;10.00;;;4.93;;
13309;SDS011;6723;48.256;16.402;2022-07-29T13:24:55;10.40;;;5.10;;
13309;SDS011;6723;48.256;16.402;2022-07-29T13:27:30;6.03;;;5.03;;
13309;SDS011;6723;48.256;16.402;2022-07-29T13:29:58;7.67;;;4.97;;
13309;SDS011;6723;48.256;16.402;2022-07-29T13:32:26;6.60;;;4.87;;
13309;SDS011;6723;48.256;16.402;2022-07-29T13:34:53;6.33;;;4.77;;
13309;SDS011;6723;48.256;16.402;2022-07-29T13:37:24;6.57;;;5.00;;
13309;SDS011;6723;48.256;16.402;2022-07-29T13:39:51;6.17;;;5.30;;
13309;SDS011;6723;48.256;16.402;2022-07-29T13:42:18;6.20;;;5.10;;
13309;SDS011;6723;48.256;16.402;2022-07-29T13:44:44;8.33;;;5.23;;
13309;SDS011;6723;48.256;16.402;2022-07-29T13:47:10;11.80;;;5.20;;
13309;SDS011;6723;48.256;16.402;2022-07-29T13:49:36;8.90;;;5.00;;
13309;SDS011;6723;48.256;16.402;2022-07-29T13:52:02;6.70;;;5.50;;
13309;SDS011;6723;48.256;16.402;2022-07-29T13:54:28;8.20;;;5.60;;
13309;SDS011;6723;48.256;16.402;2022-07-29T13:56:54;11.37;;;5.80;;
13309;SDS011;6723;48.256;16.402;2022-07-29T13:59:19;8.00;;;5.90;;
13309;SDS011;6723;48.256;16.402;2022-07-29T14:01:45;6.73;;;5.70;;
13309;SDS011;6723;48.256;16.402;2022-07-29T14:04:11;6.43;;;5.80;;
13309;SDS011;6723;48.256;16.402;2022-07-29T14:06:37;9.13;;;5.97;;
13309;SDS011;6723;48.256;16.402;2022-07-29T14:09:03;6.57;;;5.80;;
13309;SDS011;6723;48.256;16.402;2022-07-29T14:11:34;6.70;;;6.03;;
13309;SDS011;6723;48.256;16.402;2022-07-29T14:14:00;7.80;;;6.17;;
13309;SDS011;6723;48.256;16.402;2022-07-29T14:16:26;10.47;;;6.80;;
13309;SDS011;6723;48.256;16.402;2022-07-29T14:18:52;8.33;;;6.90;;
13309;SDS011;6723;48.256;16.402;2022-07-29T14:21:18;8.27;;;6.50;;
13309;SDS011;6723;48.256;16.402;2022-07-29T14:23:44;7.87;;;6.63;;
13309;SDS011;6723;48.256;16.402;2022-07-29T14:26:09;8.30;;;7.50;;
13309;SDS011;6723;48.256;16.402;2022-07-29T14:28:35;10.07;;;7.50;;
13309;SDS011;6723;48.256;16.402;2022-07-29T14:31:01;9.27;;;8.00;;
13309;SDS011;6723;48.256;16.402;2022-07-29T14:33:28;8.90;;;7.97;;
13309;SDS011;6723;48.256;16.402;2022-07-29T14:35:54;11.83;;;8.37;;
13309;SDS011;6723;48.256;16.402;2022-07-29T14:38:20;10.83;;;8.90;;
13309;SDS011;6723;48.256;16.402;2022-07-29T14:40:45;12.00;;;9.60;;
13309;SDS011;6723;48.256;16.402;2022-07-29T14:43:12;11.30;;;9.87;;
13309;SDS011;6723;48.256;16.402;2022-07-29T14:45:39;13.63;;;10.20;;
13309;SDS011;6723;48.256;16.402;2022-07-29T14:48:06;13.17;;;10.73;;
13309;SDS011;6723;48.256;16.402;2022-07-29T14:50:32;18.37;;;12.60;;
13309;SDS011;6723;48.256;16.402;2022-07-29T14:52:59;16.47;;;12.33;;
13309;SDS011;6723;48.256;16.402;2022-07-29T14:55:25;12.73;;;10.90;;
13309;SDS011;6723;48.256;16.402;2022-07-29T14:57:51;14.40;;;12.07;;
13309;SDS011;6723;48.256;16.402;2022-07-29T15:00:18;16.10;;;12.47;;
13309;SDS011;6723;48.256;16.402;2022-07-29T15:02:46;16.50;;;14.07;;
13309;SDS011;6723;48.256;16.402;2022-07-29T15:05:12;19.20;;;14.93;;
13309;SDS011;6723;48.256;16.402;2022-07-29T15:07:38;16.10;;;13.37;;
13309;SDS011;6723;48.256;16.402;2022-07-29T15:10:04;18.57;;;14.23;;
13309;SDS011;6723;48.256;16.402;2022-07-29T15:12:30;16.13;;;14.40;;
13309;SDS011;6723;48.256;16.402;2022-07-29T15:14:56;18.27;;;14.93;;
13309;SDS011;6723;48.256;16.402;2022-07-29T15:17:22;16.17;;;14.47;;
13309;SDS011;6723;48.256;16.402;2022-07-29T15:19:48;17.60;;;13.53;;
13309;SDS011;6723;48.256;16.402;2022-07-29T15:22:14;15.17;;;13.60;;
13309;SDS011;6723;48.256;16.402;2022-07-29T15:24:40;15.23;;;13.40;;
13309;SDS011;6723;48.256;16.402;2022-07-29T15:27:05;15.20;;;13.13;;
13309;SDS011;6723;48.256;16.402;2022-07-29T15:29:31;14.30;;;12.73;;
13309;SDS011;6723;48.256;16.402;2022-07-29T15:31:58;13.63;;;12.33;;
13309;SDS011;6723;48.256;16.402;2022-07-29T15:34:24;13.37;;;12.00;;
13309;SDS011;6723;48.256;16.402;2022-07-29T15:36:50;12.60;;;11.30;;
13309;SDS011;6723;48.256;16.402;2022-07-29T15:39:16;13.27;;;11.97;;
13309;SDS011;6723;48.256;16.402;2022-07-29T15:41:42;13.17;;;11.70;;
13309;SDS011;6723;48.256;16.402;2022-07-29T15:44:09;13.67;;;11.60;;
13309;SDS011;6723;48.256;16.402;2022-07-29T15:46:34;14.67;;;12.30;;
13309;SDS011;6723;48.256;16.402;2022-07-29T15:49:19;17.47;;;12.67;;